Time;durP1;ratioP1;P1;durP2;ratioP2;P2;SDS_P1;SDS_P2;PMS_P1;PMS_P2;Temp;Humidity;BMP_temperature;BMP_pressure;BME280_temperature;BME280_humidity;BME280_pressure;Samples;Min_cycle;Max_cycle;Signal;HPM_P1;HPM_P2
2023/07/25 00:01:11;;;;;;;4.50;3.07;;;16.70;99.90;;;;;;5098815;28;20463;-59
2023/07/25 00:03:40;;;;;;;6.33;3.10;;;17.20;99.90;;;;;;5097857;28;20474;-58
2023/07/25 00:06:08;;;;;;;4.10;2.60;;;17.10;99.90;;;;;;5097633;28;20489;-60
2023/07/25 00:08:35;;;;;;;5.70;3.93;;;17.30;99.90;;;;;;5097530;28;20450;-59
2023/07/25 00:11:03;;;;;;;4.80;3.00;;;17.00;99.90;;;;;;5067556;28;20442;-59
2023/07/25 00:13:32;;;;;;;5.60;2.73;;;17.40;99.90;;;;;;5099702;28;20450;-55
2023/07/25 00:16:00;;;;;;;3.10;2.70;;;17.40;99.90;;;;;;5091934;28;20448;-60
2023/07/25 00:18:29;;;;;;;3.60;3.20;;;17.00;99.90;;;;;;5098130;28;20491;-51
2023/07/25 00:20:56;;;;;;;4.40;2.73;;;17.20;99.90;;;;;;5090469;28;20494;-60
2023/07/25 00:23:23;;;;;;;4.67;2.70;;;17.20;99.90;;;;;;5084344;28;20530;-52
2023/07/25 00:25:50;;;;;;;4.73;2.83;;;17.20;99.90;;;;;;5094484;28;20463;-59
2023/07/25 00:28:17;;;;;;;2.97;1.53;;;17.30;99.90;;;;;;5088215;28;20469;-52
2023/07/25 00:30:44;;;;;;;2.87;2.40;;;;;;;;;;5092770;28;20791;-61
2023/07/25 00:33:12;;;;;;;3.23;2.73;;;;;;;;;;5075873;28;20525;-61
2023/07/25 00:35:39;;;;;;;2.87;2.63;;;16.90;99.90;;;;;;5075905;28;20537;-60
2023/07/25 00:38:06;;;;;;;4.07;3.00;;;;;;;;;;5075722;28;20487;-59
2023/07/25 00:40:38;;;;;;;7.10;2.63;;;17.30;99.90;;;;;;5083435;28;20445;-60
2023/07/25 00:43:05;;;;;;;3.80;2.70;;;;;;;;;;5095550;28;20497;-60
2023/07/25 00:45:32;;;;;;;4.33;2.40;;;17.30;99.90;;;;;;5095438;28;20500;-60
2023/07/25 00:47:59;;;;;;;4.47;2.77;;;17.00;99.90;;;;;;5097337;28;20437;-61
2023/07/25 00:50:28;;;;;;;4.70;2.90;;;16.90;99.90;;;;;;5109470;28;20473;-59
2023/07/25 00:52:58;;;;;;;3.30;2.43;;;;;;;;;;5109060;28;20445;-61
2023/07/25 00:55:25;;;;;;;3.27;2.33;;;17.00;99.90;;;;;;5109356;28;20451;-61
2023/07/25 00:57:51;;;;;;;3.23;2.40;;;17.00;99.90;;;;;;5114341;28;20446;-57
2023/07/25 01:00:19;;;;;;;2.57;2.10;;;;;;;;;;5115742;28;20452;-55
2023/07/25 01:02:45;;;;;;;5.53;2.70;;;17.00;99.90;;;;;;5115405;28;20537;-57
2023/07/25 01:05:12;;;;;;;6.03;3.40;;;17.00;99.90;;;;;;5108641;28;20529;-60
2023/07/25 01:07:42;;;;;;;5.83;2.87;;;17.00;99.90;;;;;;5108946;28;20758;-58
2023/07/25 01:10:09;;;;;;;7.47;3.57;;;17.30;99.90;;;;;;5095651;28;20466;-61
2023/07/25 01:12:36;;;;;;;4.13;2.60;;;17.00;99.90;;;;;;5107931;28;20469;-52
2023/07/25 01:15:03;;;;;;;5.83;2.23;;;17.20;99.90;;;;;;5119011;28;20438;-50
2023/07/25 01:17:30;;;;;;;5.93;3.17;;;17.00;99.90;;;;;;5119186;28;20441;-48
2023/07/25 01:19:57;;;;;;;4.70;2.70;;;17.00;99.90;;;;;;5118067;28;20421;-57
2023/07/25 01:22:27;;;;;;;3.70;2.73;;;17.00;99.90;;;;;;5116769;28;20517;-59
2023/07/25 01:24:56;;;;;;;9.70;2.37;;;16.80;99.90;;;;;;5115743;28;20441;-59
2023/07/25 01:27:23;;;;;;;4.60;3.00;;;17.00;99.90;;;;;;5115852;28;20488;-60
2023/07/25 01:29:50;;;;;;;5.83;3.27;;;;;;;;;;5115301;28;20468;-57
2023/07/25 01:32:17;;;;;;;2.90;2.60;;;17.50;99.90;;;;;;5115652;28;20465;-60
2023/07/25 01:34:44;;;;;;;8.10;3.80;;;;;;;;;;5113784;28;20461;-60
2023/07/25 01:37:12;;;;;;;5.10;3.23;;;16.80;99.90;;;;;;5110008;28;20473;-60
2023/07/25 01:39:39;;;;;;;4.70;3.43;;;17.20;99.90;;;;;;5114670;28;20458;-59
2023/07/25 01:42:10;;;;;;;3.53;3.10;;;16.90;99.90;;;;;;5109518;28;20481;-59
2023/07/25 01:44:37;;;;;;;7.03;3.70;;;17.00;99.90;;;;;;5109053;28;20505;-59
2023/07/25 01:47:04;;;;;;;3.67;2.87;;;16.80;99.90;;;;;;5108916;28;20476;-49
2023/07/25 01:49:31;;;;;;;4.30;3.30;;;17.00;99.90;;;;;;5116310;28;20437;-55
2023/07/25 01:51:58;;;;;;;7.30;3.30;;;16.70;99.90;;;;;;5100879;28;20462;-59
2023/07/25 01:54:25;;;;;;;3.80;3.03;;;;;;;;;;5094758;28;20520;-60
2023/07/25 01:56:52;;;;;;;4.70;3.00;;;;;;;;;;5094696;28;20474;-58
2023/07/25 01:59:20;;;;;;;4.10;3.20;;;16.90;99.90;;;;;;5094474;28;20445;-60
2023/07/25 02:01:48;;;;;;;5.13;3.13;;;;;;;;;;5094313;28;20536;-60
2023/07/25 02:04:15;;;;;;;5.23;3.90;;;;;;;;;;5094015;28;20485;-61
2023/07/25 02:06:42;;;;;;;4.10;3.70;;;16.80;99.90;;;;;;5094094;28;20446;-60
2023/07/25 02:09:09;;;;;;;4.10;3.70;;;16.70;99.90;;;;;;5096614;28;20512;-60
2023/07/25 02:11:36;;;;;;;7.03;4.53;;;;;;;;;;5096772;28;20445;-56
2023/07/25 02:14:03;;;;;;;8.07;6.10;;;16.60;99.90;;;;;;5099241;28;20960;-61
2023/07/25 02:16:33;;;;;;;5.10;3.70;;;17.20;99.90;;;;;;5105853;28;20485;-59
2023/07/25 02:19:00;;;;;;;4.87;4.37;;;;;;;;;;5108893;28;20516;-61
2023/07/25 02:21:28;;;;;;;9.07;4.20;;;;;;;;;;5109258;28;20483;-59
2023/07/25 02:23:54;;;;;;;5.60;4.30;;;16.60;99.90;;;;;;5104478;28;20619;-62
2023/07/25 02:26:21;;;;;;;10.30;4.40;;;16.50;99.90;;;;;;5102972;28;20500;-59
2023/07/25 02:28:48;;;;;;;8.23;5.27;;;16.80;99.90;;;;;;5105476;28;20984;-61
2023/07/25 02:31:15;;;;;;;5.73;5.23;;;16.70;99.90;;;;;;5093764;28;20973;-61
2023/07/25 02:33:43;;;;;;;6.63;4.50;;;17.00;99.90;;;;;;5093747;28;20440;-60
2023/07/25 02:36:10;;;;;;;7.90;4.20;;;16.60;99.90;;;;;;5093856;28;20445;-61
2023/07/25 02:38:37;;;;;;;8.97;5.00;;;17.10;99.90;;;;;;5094631;28;20444;-60
2023/07/25 02:41:04;;;;;;;6.57;3.43;;;17.30;99.90;;;;;;5097396;28;20560;-59
2023/07/25 02:43:31;;;;;;;13.60;3.93;;;17.00;99.90;;;;;;5101781;28;20477;-61
2023/07/25 02:45:58;;;;;;;7.90;4.37;;;;;;;;;;5110968;28;20521;-59
2023/07/25 02:48:25;;;;;;;13.83;4.87;;;17.50;99.90;;;;;;5112919;28;20473;-60
2023/07/25 02:50:53;;;;;;;7.53;4.47;;;16.90;99.90;;;;;;5108345;28;20457;-62
2023/07/25 02:53:20;;;;;;;5.93;4.00;;;17.00;99.90;;;;;;5107352;28;20529;-62
2023/07/25 02:55:47;;;;;;;5.87;4.27;;;16.90;99.90;;;;;;5099718;28;20456;-59
2023/07/25 02:58:14;;;;;;;7.50;3.50;;;17.30;99.90;;;;;;5099183;28;20457;-62
2023/07/25 03:00:41;;;;;;;5.60;4.00;;;16.80;99.90;;;;;;5097958;28;20989;-62
2023/07/25 03:03:07;;;;;;;9.33;4.97;;;16.80;99.90;;;;;;5097552;28;20564;-61
2023/07/25 03:05:34;;;;;;;7.27;4.50;;;16.70;99.90;;;;;;5100444;28;20513;-59
2023/07/25 03:08:03;;;;;;;5.83;4.57;;;;;;;;;;5100882;28;20540;-60
2023/07/25 03:10:30;;;;;;;7.00;5.53;;;16.80;99.90;;;;;;5098631;28;20456;-61
2023/07/25 03:12:57;;;;;;;6.87;4.63;;;;;;;;;;5098180;28;20445;-58
2023/07/25 03:15:24;;;;;;;8.13;3.67;;;16.90;99.90;;;;;;5098366;28;20506;-59
2023/07/25 03:17:51;;;;;;;5.20;4.07;;;16.50;99.90;;;;;;5098481;28;20482;-59
2023/07/25 03:20:18;;;;;;;4.60;3.93;;;16.70;99.90;;;;;;5097816;28;20438;-60
2023/07/25 03:22:44;;;;;;;14.83;4.97;;;16.50;99.90;;;;;;5093332;28;20604;-61
2023/07/25 03:25:13;;;;;;;7.40;4.33;;;;;;;;;;5077763;28;20516;-61
2023/07/25 03:27:40;;;;;;;6.00;4.17;;;16.50;99.90;;;;;;5089806;28;20466;-60
2023/07/25 03:30:08;;;;;;;7.30;4.60;;;16.40;99.90;;;;;;5098800;28;20480;-60
2023/07/25 03:32:35;;;;;;;5.10;4.10;;;16.60;99.90;;;;;;5090744;28;20454;-61
2023/07/25 03:35:02;;;;;;;5.17;3.60;;;;;;;;;;5076935;28;20525;-60
2023/07/25 03:37:29;;;;;;;5.10;3.40;;;;;;;;;;5076904;28;20533;-55
2023/07/25 03:39:56;;;;;;;6.93;6.07;;;;;;;;;;5083670;28;20468;-61
2023/07/25 03:42:24;;;;;;;6.17;4.20;;;16.70;99.90;;;;;;5095182;28;20461;-59
2023/07/25 03:44:52;;;;;;;4.20;3.57;;;16.40;99.90;;;;;;5092745;28;20480;-55
2023/07/25 03:47:19;;;;;;;13.10;4.60;;;;;;;;;;5092287;28;20458;-57
2023/07/25 03:49:47;;;;;;;7.37;4.20;;;16.50;99.90;;;;;;5091685;28;20458;-59
2023/07/25 03:52:16;;;;;;;5.47;3.50;;;16.90;99.90;;;;;;5095832;28;20431;-56
2023/07/25 03:54:43;;;;;;;5.50;3.90;;;;;;;;;;5076986;28;20458;-61
2023/07/25 03:57:10;;;;;;;13.60;4.90;;;16.40;99.90;;;;;;5075384;28;20443;-60
2023/07/25 03:59:38;;;;;;;6.17;4.33;;;16.80;99.90;;;;;;5076548;28;20456;-62
2023/07/25 04:02:06;;;;;;;7.67;4.10;;;16.60;99.90;;;;;;5076915;28;20478;-60
2023/07/25 04:04:33;;;;;;;8.23;4.27;;;16.50;99.90;;;;;;5075970;28;20493;-60
2023/07/25 04:07:00;;;;;;;4.70;3.97;;;;;;;;;;5094720;28;20469;-60
2023/07/25 04:09:27;;;;;;;6.20;3.70;;;;;;;;;;5097137;28;20481;-61
2023/07/25 04:11:54;;;;;;;7.13;4.87;;;;;;;;;;5102572;28;20535;-62
2023/07/25 04:14:20;;;;;;;4.80;3.97;;;16.40;99.90;;;;;;5102552;28;20505;-60
2023/07/25 04:16:48;;;;;;;4.23;3.30;;;16.20;99.90;;;;;;5110078;28;20471;-60
2023/07/25 04:19:16;;;;;;;7.40;3.40;;;16.50;99.90;;;;;;5110808;28;20227;-60
2023/07/25 04:21:42;;;;;;;7.53;3.90;;;16.60;99.90;;;;;;5102064;28;21004;-60
2023/07/25 04:24:09;;;;;;;7.67;4.43;;;16.60;99.90;;;;;;5102212;28;20548;-60
2023/07/25 04:26:36;;;;;;;5.70;4.00;;;16.90;99.90;;;;;;5109666;28;20441;-61
2023/07/25 04:29:03;;;;;;;6.70;4.13;;;16.80;99.90;;;;;;5111143;28;20549;-61
2023/07/25 04:31:30;;;;;;;4.80;4.30;;;;;;;;;;5111505;28;20470;-59
2023/07/25 04:33:58;;;;;;;4.20;3.70;;;16.60;99.90;;;;;;5111399;28;20465;-62
2023/07/25 04:36:28;;;;;;;7.80;3.80;;;;;;;;;;5110954;28;20510;-60
2023/07/25 04:38:55;;;;;;;5.70;5.00;;;17.20;99.90;;;;;;5111259;28;20972;-60
2023/07/25 04:41:22;;;;;;;6.93;3.70;;;16.60;99.90;;;;;;5113389;28;20498;-60
2023/07/25 04:43:49;;;;;;;5.43;4.20;;;;;;;;;;5095853;28;20580;-62
2023/07/25 04:46:16;;;;;;;8.00;3.87;;;17.00;99.90;;;;;;5103179;28;20461;-62
2023/07/25 04:48:43;;;;;;;6.70;4.60;;;;;;;;;;5110831;28;20501;-60
2023/07/25 04:51:11;;;;;;;5.13;3.40;;;16.90;99.90;;;;;;5111004;28;20452;-61
2023/07/25 04:53:38;;;;;;;4.80;3.67;;;;;;;;;;5109625;28;20473;-60
2023/07/25 04:56:05;;;;;;;9.57;3.47;;;16.60;99.90;;;;;;5110748;28;20473;-53
2023/07/25 04:58:33;;;;;;;4.00;3.50;;;;;;;;;;5109205;28;20470;-61
2023/07/25 05:00:59;;;;;;;5.47;3.33;;;16.80;99.90;;;;;;5108609;28;20499;-60
2023/07/25 05:03:27;;;;;;;7.00;3.57;;;;;;;;;;5102901;28;20564;-61
2023/07/25 05:05:56;;;;;;;6.37;3.03;;;16.80;99.90;;;;;;5101868;28;20552;-59
2023/07/25 05:08:25;;;;;;;6.13;3.20;;;16.70;99.90;;;;;;5106234;28;20450;-58
2023/07/25 05:10:52;;;;;;;11.57;4.10;;;;;;;;;;5110593;28;20479;-60
2023/07/25 05:13:19;;;;;;;6.73;3.67;;;16.60;99.90;;;;;;5110674;28;20442;-59
2023/07/25 05:15:46;;;;;;;5.07;4.50;;;17.00;99.90;;;;;;5110371;28;20552;-61
2023/07/25 05:18:13;;;;;;;3.97;3.10;;;17.00;99.90;;;;;;5113709;28;20469;-61
2023/07/25 05:20:40;;;;;;;5.70;3.40;;;;;;;;;;5111201;28;20478;-59
2023/07/25 05:23:07;;;;;;;7.50;3.47;;;17.00;99.90;;;;;;5115490;28;20501;-58
2023/07/25 05:25:42;;;;;;;3.73;3.43;;;16.70;99.90;;;;;;5116251;28;20484;-59
2023/07/25 05:28:10;;;;;;;6.90;3.80;;;;;;;;;;5099019;28;20479;-62
2023/07/25 05:30:37;;;;;;;4.77;3.27;;;;;;;;;;5094802;28;20988;-58
2023/07/25 05:33:04;;;;;;;3.83;3.30;;;16.60;99.90;;;;;;5095537;28;20532;-60
2023/07/25 05:35:31;;;;;;;6.93;2.90;;;17.60;99.90;;;;;;5091589;28;20457;-61
2023/07/25 05:38:00;;;;;;;5.77;3.57;;;17.00;99.90;;;;;;5079972;28;20446;-61
2023/07/25 05:40:27;;;;;;;9.10;4.00;;;17.00;99.90;;;;;;5082058;28;20537;-59
2023/07/25 05:42:55;;;;;;;6.20;2.47;;;17.30;99.90;;;;;;5088131;28;20458;-59
2023/07/25 05:45:22;;;;;;;4.30;2.50;;;17.30;99.90;;;;;;5088360;28;20573;-60
2023/07/25 05:47:49;;;;;;;5.77;2.63;;;17.20;99.90;;;;;;5092549;28;20446;-59
2023/07/25 05:50:16;;;;;;;7.20;2.77;;;17.40;99.90;;;;;;5098861;28;20445;-57
2023/07/25 05:52:43;;;;;;;4.90;2.47;;;17.20;99.90;;;;;;5116076;28;20453;-60
2023/07/25 05:55:10;;;;;;;4.83;2.10;;;17.40;99.90;;;;;;5115399;28;20437;-58
2023/07/25 05:57:37;;;;;;;9.80;2.70;;;17.30;99.90;;;;;;5115903;28;20478;-57
2023/07/25 06:00:07;;;;;;;6.33;2.40;;;17.60;99.90;;;;;;5115227;28;20452;-58
2023/07/25 06:02:34;;;;;;;11.63;2.70;;;17.80;99.90;;;;;;5114467;28;20485;-60
2023/07/25 06:05:01;;;;;;;4.50;3.00;;;;;;;;;;5096122;28;20481;-62
2023/07/25 06:07:28;;;;;;;5.40;2.87;;;17.70;99.90;;;;;;5094310;28;20865;-61
2023/07/25 06:09:55;;;;;;;4.93;2.70;;;;;;;;;;5094527;28;20520;-61
2023/07/25 06:12:22;;;;;;;5.80;2.50;;;;;;;;;;5094300;28;20508;-60
2023/07/25 06:14:50;;;;;;;3.10;2.40;;;17.80;99.90;;;;;;5094135;28;20524;-60
2023/07/25 06:17:18;;;;;;;19.73;3.60;;;18.00;99.90;;;;;;5093894;28;20437;-61
2023/07/25 06:19:45;;;;;;;5.57;2.50;;;18.10;99.90;;;;;;5096717;28;20475;-58
2023/07/25 06:22:14;;;;;;;2.90;2.60;;;;;;;;;;5105978;28;20964;-61
2023/07/25 06:24:41;;;;;;;8.17;3.50;;;18.10;99.90;;;;;;5106817;28;20495;-60
2023/07/25 06:27:08;;;;;;;4.93;3.10;;;17.90;99.90;;;;;;5109232;28;20525;-60
2023/07/25 06:29:35;;;;;;;3.20;2.90;;;17.90;99.90;;;;;;5114111;28;20485;-58
2023/07/25 06:32:02;;;;;;;6.67;2.77;;;17.90;99.90;;;;;;5107260;28;20461;-58
2023/07/25 06:34:30;;;;;;;9.77;3.17;;;17.80;99.90;;;;;;5095183;28;20510;-61
2023/07/25 06:36:57;;;;;;;6.53;2.77;;;17.90;99.90;;;;;;5093475;28;20552;-63
2023/07/25 06:39:25;;;;;;;3.50;2.03;;;;;;;;;;5093510;28;20453;-60
2023/07/25 06:41:52;;;;;;;4.20;2.77;;;;;;;;;;5075622;28;20568;-60
2023/07/25 06:44:19;;;;;;;2.50;1.93;;;;;;;;;;5076986;28;20577;-58
2023/07/25 06:46:45;;;;;;;4.90;2.17;;;17.80;99.90;;;;;;5102639;28;20498;-59
2023/07/25 06:49:12;;;;;;;5.33;2.37;;;17.80;99.90;;;;;;5106172;28;20483;-59
2023/07/25 06:51:40;;;;;;;5.20;2.60;;;18.00;99.90;;;;;;5106707;28;20466;-61
2023/07/25 06:54:07;;;;;;;3.10;2.07;;;18.10;99.90;;;;;;5106474;28;20442;-60
2023/07/25 06:56:37;;;;;;;3.63;1.97;;;17.90;99.90;;;;;;5093617;28;20437;-61
2023/07/25 06:59:04;;;;;;;4.30;2.43;;;;;;;;;;5095116;28;20491;-59
2023/07/25 07:01:33;;;;;;;7.97;2.87;;;18.30;99.90;;;;;;5114567;28;20426;-57
2023/07/25 07:04:00;;;;;;;3.80;2.50;;;18.60;99.90;;;;;;5083677;28;20601;-59
2023/07/25 07:06:28;;;;;;;3.83;2.27;;;;;;;;;;5073877;28;20451;-61
2023/07/25 07:08:56;;;;;;;6.27;1.80;;;18.50;99.90;;;;;;5076302;28;20527;-62
2023/07/25 07:11:23;;;;;;;2.70;2.20;;;;;;;;;;5089456;28;20473;-63
2023/07/25 07:13:53;;;;;;;6.83;2.33;;;19.10;99.90;;;;;;5102605;28;20472;-60
2023/07/25 07:16:20;;;;;;;2.83;2.03;;;19.10;99.90;;;;;;5113404;28;20490;-61
2023/07/25 07:18:47;;;;;;;9.13;3.33;;;18.60;99.90;;;;;;5111102;28;20485;-61
2023/07/25 07:21:14;;;;;;;10.23;2.60;;;19.50;99.90;;;;;;5106064;28;20429;-62
2023/07/25 07:23:41;;;;;;;5.60;2.50;;;20.00;99.90;;;;;;5105844;28;20480;-61
2023/07/25 07:26:09;;;;;;;5.23;2.20;;;20.80;99.90;;;;;;5096400;28;20533;-63
2023/07/25 07:28:36;;;;;;;4.80;2.13;;;;;;;;;;5091726;28;20442;-57
2023/07/25 07:31:04;;;;;;;6.00;2.00;;;23.20;99.90;;;;;;5106383;28;20472;-61
2023/07/25 07:33:31;;;;;;;3.63;2.30;;;23.00;99.90;;;;;;5102977;28;20495;-59
2023/07/25 07:35:58;;;;;;;5.40;2.20;;;23.10;99.90;;;;;;5097334;28;20441;-59
2023/07/25 07:38:25;;;;;;;10.03;2.70;;;23.70;99.90;;;;;;5097546;28;20477;-62
2023/07/25 07:40:52;;;;;;;3.70;2.00;;;;;;;;;;5097011;28;20902;-60
2023/07/25 07:43:21;;;;;;;3.53;2.10;;;23.10;99.90;;;;;;5098312;28;20453;-62
2023/07/25 07:45:47;;;;;;;4.03;2.27;;;22.60;99.90;;;;;;5103297;28;20641;-64
2023/07/25 07:48:14;;;;;;;2.63;1.90;;;22.30;99.90;;;;;;5102872;28;20437;-63
2023/07/25 07:50:43;;;;;;;3.00;1.93;;;22.70;99.90;;;;;;5099264;28;20497;-64
2023/07/25 07:53:10;;;;;;;3.57;1.73;;;22.80;99.90;;;;;;5097501;28;20449;-61
2023/07/25 07:55:37;;;;;;;3.13;1.53;;;23.30;99.90;;;;;;5102230;28;20537;-59
2023/07/25 07:58:04;;;;;;;4.70;2.10;;;;;;;;;;5101669;28;20520;-61
2023/07/25 08:00:32;;;;;;;2.63;2.07;;;24.70;99.90;;;;;;5097929;28;20949;-60
2023/07/25 08:03:00;;;;;;;3.60;2.03;;;;;;;;;;5101721;28;20485;-61
2023/07/25 08:05:27;;;;;;;5.43;1.47;;;;;;;;;;5110374;28;21051;-60
2023/07/25 08:07:54;;;;;;;2.30;1.80;;;24.60;99.90;;;;;;5096559;28;21008;-61
2023/07/25 08:10:21;;;;;;;4.83;1.90;;;;;;;;;;5094069;28;20485;-61
2023/07/25 08:12:48;;;;;;;2.90;1.43;;;24.50;99.90;;;;;;5076656;28;20534;-64
2023/07/25 08:15:15;;;;;;;14.03;1.80;;;25.00;99.90;;;;;;5076811;28;20480;-60
2023/07/25 08:17:43;;;;;;;2.80;1.70;;;25.30;99.90;;;;;;5077132;28;20456;-62
2023/07/25 08:20:13;;;;;;;2.37;1.50;;;25.40;99.90;;;;;;5078886;28;20470;-66
2023/07/25 08:22:39;;;;;;;3.23;1.77;;;25.20;99.90;;;;;;5080781;28;20477;-60
2023/07/25 08:25:09;;;;;;;4.50;2.20;;;24.50;99.90;;;;;;5106439;28;20465;-53
2023/07/25 08:27:38;;;;;;;2.13;1.70;;;24.10;99.90;;;;;;5120394;28;20433;-51
2023/07/25 08:30:06;;;;;;;4.10;1.50;;;25.20;99.90;;;;;;5120298;28;20450;-46
2023/07/25 08:32:33;;;;;;;3.37;1.93;;;24.90;99.90;;;;;;5118030;28;20465;-63
2023/07/25 08:35:01;;;;;;;5.00;2.87;;;25.30;99.90;;;;;;5098206;28;20476;-65
2023/07/25 08:37:28;;;;;;;3.20;1.50;;;;;;;;;;5098099;28;20994;-65
2023/07/25 08:39:55;;;;;;;3.73;1.97;;;;;;;;;;5097029;28;20627;-65
2023/07/25 08:42:25;;;;;;;3.57;2.00;;;28.00;86.40;;;;;;5097610;28;20953;-65
2023/07/25 08:44:53;;;;;;;3.67;1.73;;;28.00;84.30;;;;;;5097564;28;20937;-65
2023/07/25 08:47:27;;;;;;;1.80;1.57;;;27.30;99.90;;;;;;5099700;28;20560;-63
2023/07/25 08:49:56;;;;;;;3.40;1.33;;;26.50;99.90;;;;;;5103204;28;20449;-67
2023/07/25 08:52:29;;;;;;;3.73;1.70;;;26.20;89.40;;;;;;5107344;28;20469;-64
2023/07/25 08:54:56;;;;;;;3.83;1.50;;;25.60;90.60;;;;;;5096236;28;20437;-64
2023/07/25 08:57:24;;;;;;;3.47;1.60;;;25.20;99.90;;;;;;5096950;28;20483;-63
2023/07/25 08:59:51;;;;;;;4.50;1.57;;;25.60;99.90;;;;;;5100812;28;20465;-58
2023/07/25 09:02:19;;;;;;;2.87;1.67;;;26.50;99.90;;;;;;5096100;28;20510;-63
2023/07/25 09:04:46;;;;;;;3.93;2.10;;;;;;;;;;5095594;28;20568;-64
2023/07/25 09:07:13;;;;;;;5.87;2.63;;;;;;;;;;5095387;28;20466;-63
2023/07/25 09:09:42;;;;;;;3.77;1.80;;;27.90;99.90;;;;;;5095671;28;20430;-65
2023/07/25 09:12:09;;;;;;;5.97;2.13;;;28.10;99.90;;;;;;5095206;28;20447;-62
2023/07/25 09:14:38;;;;;;;2.27;1.50;;;28.40;99.90;;;;;;5096191;28;20438;-62
2023/07/25 09:17:05;;;;;;;5.00;1.70;;;28.20;99.20;;;;;;5104653;28;20484;-62
2023/07/25 09:19:33;;;;;;;1.63;1.30;;;;;;;;;;5104701;28;20449;-60
2023/07/25 09:22:00;;;;;;;6.30;1.97;;;26.80;99.90;;;;;;5104970;28;20514;-60
2023/07/25 09:24:35;;;;;;;3.80;1.80;;;26.10;99.90;;;;;;5104891;28;20449;-61
2023/07/25 09:27:05;;;;;;;3.53;1.80;;;25.30;85.60;;;;;;5106327;28;20425;-62
2023/07/25 09:29:38;;;;;;;2.40;1.73;;;24.70;90.90;;;;;;5108915;28;20465;-62
2023/07/25 09:32:18;;;;;;;2.20;2.00;;;24.20;99.90;;;;;;5114888;28;20442;-63
2023/07/25 09:34:46;;;;;;;4.63;2.00;;;;;;;;;;5114640;28;20467;-62
2023/07/25 09:37:16;;;;;;;5.07;2.00;;;23.00;98.80;;;;;;5114503;28;20460;-61
2023/07/25 09:39:43;;;;;;;5.70;2.03;;;22.80;99.90;;;;;;5114288;28;20509;-60
2023/07/25 09:42:11;;;;;;;3.80;1.77;;;22.70;99.90;;;;;;5114365;28;20441;-62
2023/07/25 09:44:45;;;;;;;1.80;1.37;;;22.60;99.90;;;;;;5114272;28;20437;-62
2023/07/25 09:47:12;;;;;;;4.17;1.80;;;22.20;99.90;;;;;;5114540;28;20427;-63
2023/07/25 09:49:39;;;;;;;6.60;1.90;;;;;;;;;;5114513;28;20461;-59
2023/07/25 09:52:08;;;;;;;4.80;1.60;;;22.10;99.90;;;;;;5112178;28;20449;-62
2023/07/25 09:54:35;;;;;;;3.70;1.97;;;21.80;99.90;;;;;;5108986;28;20466;-60
2023/07/25 09:57:09;;;;;;;5.70;2.57;;;;;;;;;;5115242;28;20444;-61
2023/07/25 09:59:41;;;;;;;3.30;1.90;;;21.80;99.90;;;;;;5114968;28;20473;-60
2023/07/25 10:02:09;;;;;;;3.17;1.73;;;22.00;99.90;;;;;;5116039;28;20495;-60
2023/07/25 10:04:37;;;;;;;5.00;1.97;;;22.00;99.90;;;;;;5115698;28;20954;-57
2023/07/25 10:07:10;;;;;;;2.03;1.53;;;22.20;99.90;;;;;;5116104;28;20437;-58
2023/07/25 10:09:39;;;;;;;3.17;1.60;;;22.60;99.90;;;;;;5115348;28;20469;-57
2023/07/25 10:12:07;;;;;;;2.53;1.70;;;22.50;99.90;;;;;;5115642;28;20499;-58
2023/07/25 10:14:40;;;;;;;3.00;2.30;;;22.30;99.90;;;;;;5116295;28;20446;-58
2023/07/25 10:17:08;;;;;;;2.10;1.57;;;22.40;99.90;;;;;;5115946;28;20446;-57
2023/07/25 10:19:47;;;;;;;4.37;1.90;;;22.60;99.90;;;;;;5115336;28;20466;-60
2023/07/25 10:22:15;;;;;;;2.70;1.90;;;22.40;99.90;;;;;;5115801;28;20507;-59
2023/07/25 10:24:45;;;;;;;2.97;1.50;;;22.10;99.90;;;;;;5114746;28;20493;-59
2023/07/25 10:27:13;;;;;;;4.80;1.97;;;22.20;99.90;;;;;;5116689;28;20421;-55
2023/07/25 10:29:44;;;;;;;2.53;2.33;;;21.90;99.90;;;;;;5116360;28;20476;-58
2023/07/25 10:32:14;;;;;;;2.80;2.40;;;22.00;99.90;;;;;;5116553;28;20452;-61
2023/07/25 10:34:48;;;;;;;5.43;2.20;;;22.00;99.90;;;;;;5115524;28;20449;-59
2023/07/25 10:37:30;;;;;;;5.63;2.33;;;22.80;99.90;;;;;;5116426;28;20437;-59
2023/07/25 10:40:05;;;;;;;2.27;1.70;;;22.50;99.90;;;;;;5116313;28;20475;-60
2023/07/25 10:42:52;;;;;;;3.60;1.90;;;23.00;99.90;;;;;;5096119;28;20446;-59
2023/07/25 10:45:53;;;;;;;3.63;2.00;;;23.70;99.90;;;;;;5094872;28;20478;-56
2023/07/25 10:48:44;;;;;;;2.60;1.80;;;24.50;99.90;;;;;;5095224;28;20413;-59
2023/07/25 10:51:12;;;;;;;6.20;2.07;;;24.70;99.90;;;;;;5113588;28;20483;-59
2023/07/25 10:53:40;;;;;;;3.70;1.77;;;24.90;98.70;;;;;;5115054;28;20456;-60
2023/07/25 10:56:18;;;;;;;2.67;1.60;;;24.90;99.90;;;;;;5114254;28;20477;-58
2023/07/25 10:59:10;;;;;;;4.30;2.17;;;24.70;99.90;;;;;;5114423;28;20548;-58
2023/07/25 11:01:47;;;;;;;9.73;2.33;;;25.30;99.90;;;;;;5114520;28;20457;-58
2023/07/25 11:04:30;;;;;;;4.37;1.97;;;25.20;96.30;;;;;;5114976;28;20438;-60
2023/07/25 11:06:59;;;;;;;1.53;1.33;;;25.60;96.40;;;;;;5117091;28;20513;-60
2023/07/25 11:09:28;;;;;;;2.33;1.47;;;25.80;93.10;;;;;;5118004;28;20455;-61
2023/07/25 11:12:02;;;;;;;2.57;2.17;;;25.90;93.10;;;;;;5117701;28;20464;-60
2023/07/25 11:14:32;;;;;;;2.53;2.00;;;25.60;99.90;;;;;;5118359;28;20935;-60
2023/07/25 11:17:03;;;;;;;5.60;1.77;;;25.60;92.80;;;;;;5117811;28;20481;-58
2023/07/25 11:19:30;;;;;;;1.93;1.43;;;25.30;99.90;;;;;;5118130;28;20434;-58
2023/07/25 11:21:57;;;;;;;2.43;1.90;;;24.60;99.90;;;;;;5117744;28;20462;-62
2023/07/25 11:24:25;;;;;;;7.67;2.20;;;24.30;99.90;;;;;;5110090;28;20441;-59
2023/07/25 11:26:52;;;;;;;3.40;1.80;;;23.50;99.90;;;;;;5113314;28;20861;-59
2023/07/25 11:29:19;;;;;;;1.93;1.63;;;;;;;;;;5117729;28;20436;-61
2023/07/25 11:31:48;;;;;;;2.47;1.80;;;23.20;99.90;;;;;;5117464;28;20962;-59
2023/07/25 11:34:18;;;;;;;4.30;2.00;;;22.70;99.90;;;;;;5117689;28;20463;-55
2023/07/25 11:36:45;;;;;;;4.03;2.00;;;22.30;99.90;;;;;;5117699;28;20429;-59
2023/07/25 11:39:18;;;;;;;2.33;1.70;;;22.50;99.90;;;;;;5118218;28;20430;-58
2023/07/25 11:41:46;;;;;;;4.33;2.20;;;22.50;99.90;;;;;;5117988;28;20517;-58
2023/07/25 11:44:15;;;;;;;2.27;2.07;;;22.40;99.90;;;;;;5117877;28;20438;-61
2023/07/25 11:46:44;;;;;;;3.13;1.93;;;21.90;99.90;;;;;;5117718;28;20825;-61
2023/07/25 11:49:13;;;;;;;2.23;1.73;;;22.40;99.90;;;;;;5118256;28;20441;-60
2023/07/25 11:51:42;;;;;;;12.83;3.73;;;22.60;99.90;;;;;;5118059;28;20453;-61
2023/07/25 11:54:09;;;;;;;4.70;2.03;;;22.80;99.90;;;;;;5118192;28;20505;-56
2023/07/25 11:56:37;;;;;;;4.10;2.37;;;23.20;99.90;;;;;;5117511;28;20456;-59
2023/07/25 11:59:04;;;;;;;6.13;2.47;;;23.30;99.90;;;;;;5117802;28;20448;-59
2023/07/25 12:01:32;;;;;;;4.67;2.30;;;23.60;99.90;;;;;;5117695;28;20434;-59
2023/07/25 12:04:01;;;;;;;2.80;1.83;;;22.90;99.90;;;;;;5117449;28;20503;-56
2023/07/25 12:06:29;;;;;;;3.20;2.17;;;23.10;99.90;;;;;;5117750;28;20499;-61
2023/07/25 12:08:58;;;;;;;2.40;1.80;;;23.30;99.90;;;;;;5114413;28;20465;-61
2023/07/25 12:11:26;;;;;;;6.10;2.10;;;;;;;;;;5111990;28;20445;-61
2023/07/25 12:13:55;;;;;;;1.80;1.57;;;23.60;93.90;;;;;;5111628;28;20473;-62
2023/07/25 12:16:30;;;;;;;3.50;1.50;;;23.60;99.90;;;;;;5111791;28;20448;-61
2023/07/25 12:19:00;;;;;;;2.10;1.77;;;23.80;93.90;;;;;;5111886;28;20468;-61
2023/07/25 12:21:28;;;;;;;2.40;1.27;;;23.90;99.90;;;;;;5111684;28;20473;-60
2023/07/25 12:24:00;;;;;;;2.53;1.73;;;23.80;99.90;;;;;;5112258;28;20469;-62
2023/07/25 12:26:28;;;;;;;4.60;1.57;;;23.90;99.90;;;;;;5110465;28;20461;-63
2023/07/25 12:28:56;;;;;;;3.10;1.70;;;24.00;90.10;;;;;;5111898;28;20465;-62
2023/07/25 12:31:24;;;;;;;3.50;1.70;;;;;;;;;;5112066;28;20462;-62
2023/07/25 12:33:54;;;;;;;1.53;1.37;;;24.30;99.90;;;;;;5111496;28;20465;-60
2023/07/25 12:36:21;;;;;;;3.13;1.53;;;24.40;99.90;;;;;;5116952;28;20429;-59
2023/07/25 12:38:48;;;;;;;2.33;1.70;;;;;;;;;;5116907;28;20468;-59
2023/07/25 12:41:16;;;;;;;6.73;2.20;;;24.50;99.90;;;;;;5110920;28;20466;-58
2023/07/25 12:43:43;;;;;;;6.93;1.93;;;24.20;99.90;;;;;;5096379;28;20451;-59
2023/07/25 12:46:10;;;;;;;4.07;1.60;;;24.80;99.90;;;;;;5079394;28;20539;-64
2023/07/25 12:48:37;;;;;;;2.70;1.37;;;;;;;;;;5076182;28;20470;-61
2023/07/25 12:51:06;;;;;;;1.97;1.57;;;24.50;99.90;;;;;;5091579;28;20481;-61
2023/07/25 12:53:33;;;;;;;1.90;1.20;;;;;;;;;;5096432;28;20454;-61
2023/07/25 12:56:00;;;;;;;2.50;1.67;;;24.40;89.30;;;;;;5096009;28;20431;-59
2023/07/25 12:58:29;;;;;;;6.13;1.57;;;24.30;99.90;;;;;;5096318;28;20439;-61
2023/07/25 13:00:56;;;;;;;6.40;2.40;;;;;;;;;;5091232;28;20466;-62
2023/07/25 13:03:24;;;;;;;2.47;1.53;;;24.30;99.90;;;;;;5080220;28;20485;-61
2023/07/25 13:05:52;;;;;;;3.53;1.87;;;;;;;;;;5080794;28;20498;-60
2023/07/25 13:08:19;;;;;;;2.40;1.70;;;23.40;99.90;;;;;;5078598;28;20450;-61
2023/07/25 13:10:47;;;;;;;3.30;2.00;;;23.00;99.90;;;;;;5089082;28;20498;-61
2023/07/25 13:13:14;;;;;;;1.77;1.37;;;22.90;99.90;;;;;;5101344;28;20457;-61
2023/07/25 13:15:43;;;;;;;4.50;1.83;;;22.60;99.90;;;;;;5110057;28;20536;-58